sensor_id;sensor_type;location;lat;lon;timestamp;pressure;altitude;pressure_sealevel;temperature
12430;BMP280;6279;42.192;24.326;2023-09-08T00:00:56;99486.63;;;22.22
12430;BMP280;6279;42.192;24.326;2023-09-08T00:03:21;99477.72;;;22.17
12430;BMP280;6279;42.192;24.326;2023-09-08T00:05:46;99471.19;;;22.19
12430;BMP280;6279;42.192;24.326;2023-09-08T00:08:12;99476.22;;;22.09
12430;BMP280;6279;42.192;24.326;2023-09-08T00:10:37;99476.00;;;22.11
12430;BMP280;6279;42.192;24.326;2023-09-08T00:13:03;99480.25;;;22.12
12430;BMP280;6279;42.192;24.326;2023-09-08T00:15:28;99472.22;;;22.18
12430;BMP280;6279;42.192;24.326;2023-09-08T00:17:54;99479.72;;;22.21
12430;BMP280;6279;42.192;24.326;2023-09-08T00:20:19;99481.91;;;22.24
12430;BMP280;6279;42.192;24.326;2023-09-08T00:22:45;99475.56;;;22.25
12430;BMP280;6279;42.192;24.326;2023-09-08T00:25:10;99472.69;;;22.26
12430;BMP280;6279;42.192;24.326;2023-09-08T00:27:35;99483.50;;;22.25
12430;BMP280;6279;42.192;24.326;2023-09-08T00:30:01;99478.09;;;22.20
12430;BMP280;6279;42.192;24.326;2023-09-08T00:32:30;99475.06;;;22.17
12430;BMP280;6279;42.192;24.326;2023-09-08T00:34:56;99478.88;;;22.09
12430;BMP280;6279;42.192;24.326;2023-09-08T00:37:21;99477.00;;;21.98
12430;BMP280;6279;42.192;24.326;2023-09-08T00:39:46;99486.88;;;21.92
12430;BMP280;6279;42.192;24.326;2023-09-08T00:42:12;99484.09;;;21.87
12430;BMP280;6279;42.192;24.326;2023-09-08T00:44:37;99479.00;;;21.74
12430;BMP280;6279;42.192;24.326;2023-09-08T00:47:03;99484.16;;;21.69
12430;BMP280;6279;42.192;24.326;2023-09-08T00:49:28;99482.19;;;21.65
12430;BMP280;6279;42.192;24.326;2023-09-08T00:51:54;99485.50;;;21.60
12430;BMP280;6279;42.192;24.326;2023-09-08T00:54:20;99492.88;;;21.58
12430;BMP280;6279;42.192;24.326;2023-09-08T00:56:46;99482.59;;;21.51
12430;BMP280;6279;42.192;24.326;2023-09-08T00:59:12;99478.06;;;21.40
12430;BMP280;6279;42.192;24.326;2023-09-08T01:01:38;99477.13;;;21.34
12430;BMP280;6279;42.192;24.326;2023-09-08T01:04:03;99469.91;;;21.24
12430;BMP280;6279;42.192;24.326;2023-09-08T01:06:30;99476.31;;;21.16
12430;BMP280;6279;42.192;24.326;2023-09-08T01:08:57;99465.13;;;21.14
12430;BMP280;6279;42.192;24.326;2023-09-08T01:11:23;99467.63;;;21.09
12430;BMP280;6279;42.192;24.326;2023-09-08T01:13:48;99462.19;;;21.05
12430;BMP280;6279;42.192;24.326;2023-09-08T01:16:14;99462.88;;;21.00
12430;BMP280;6279;42.192;24.326;2023-09-08T01:18:39;99460.31;;;20.94
12430;BMP280;6279;42.192;24.326;2023-09-08T01:21:18;99464.03;;;20.87
12430;BMP280;6279;42.192;24.326;2023-09-08T01:23:59;99461.25;;;20.82
12430;BMP280;6279;42.192;24.326;2023-09-08T01:26:28;99459.56;;;20.69
12430;BMP280;6279;42.192;24.326;2023-09-08T01:28:55;99463.44;;;20.67
12430;BMP280;6279;42.192;24.326;2023-09-08T01:31:21;99462.53;;;20.55
12430;BMP280;6279;42.192;24.326;2023-09-08T01:33:46;99459.91;;;20.55
12430;BMP280;6279;42.192;24.326;2023-09-08T01:36:12;99460.13;;;20.54
12430;BMP280;6279;42.192;24.326;2023-09-08T01:38:39;99452.72;;;20.38
12430;BMP280;6279;42.192;24.326;2023-09-08T01:41:04;99454.78;;;20.36
12430;BMP280;6279;42.192;24.326;2023-09-08T01:43:30;99449.94;;;20.33
12430;BMP280;6279;42.192;24.326;2023-09-08T01:45:55;99440.53;;;20.37
12430;BMP280;6279;42.192;24.326;2023-09-08T01:48:20;99448.25;;;20.45
12430;BMP280;6279;42.192;24.326;2023-09-08T01:50:46;99445.38;;;20.46
12430;BMP280;6279;42.192;24.326;2023-09-08T01:53:12;99451.47;;;20.47
12430;BMP280;6279;42.192;24.326;2023-09-08T01:55:37;99449.25;;;20.44
12430;BMP280;6279;42.192;24.326;2023-09-08T01:58:03;99448.66;;;20.42
12430;BMP280;6279;42.192;24.326;2023-09-08T02:00:28;99449.94;;;20.33
12430;BMP280;6279;42.192;24.326;2023-09-08T02:02:53;99450.28;;;20.43
12430;BMP280;6279;42.192;24.326;2023-09-08T02:05:19;99450.31;;;20.37
12430;BMP280;6279;42.192;24.326;2023-09-08T02:07:45;99450.28;;;20.43
12430;BMP280;6279;42.192;24.326;2023-09-08T02:10:10;99455.72;;;20.48
12430;BMP280;6279;42.192;24.326;2023-09-08T02:12:36;99452.06;;;20.49
12430;BMP280;6279;42.192;24.326;2023-09-08T02:15:01;99451.25;;;20.48
12430;BMP280;6279;42.192;24.326;2023-09-08T02:17:27;99452.50;;;20.46
12430;BMP280;6279;42.192;24.326;2023-09-08T02:19:52;99458.41;;;20.42
12430;BMP280;6279;42.192;24.326;2023-09-08T02:22:18;99454.38;;;20.39
12430;BMP280;6279;42.192;24.326;2023-09-08T02:24:43;99447.16;;;20.28
12430;BMP280;6279;42.192;24.326;2023-09-08T02:27:09;99446.78;;;20.25
12430;BMP280;6279;42.192;24.326;2023-09-08T02:29:34;99447.44;;;20.21
12430;BMP280;6279;42.192;24.326;2023-09-08T02:32:00;99443.50;;;20.05
12430;BMP280;6279;42.192;24.326;2023-09-08T02:34:26;99448.22;;;19.97
12430;BMP280;6279;42.192;24.326;2023-09-08T02:36:51;99441.81;;;19.87
12430;BMP280;6279;42.192;24.326;2023-09-08T02:39:16;99445.88;;;19.89
12430;BMP280;6279;42.192;24.326;2023-09-08T02:41:42;99440.81;;;19.88
12430;BMP280;6279;42.192;24.326;2023-09-08T02:44:07;99436.16;;;19.83
12430;BMP280;6279;42.192;24.326;2023-09-08T02:46:32;99426.88;;;19.75
12430;BMP280;6279;42.192;24.326;2023-09-08T02:48:58;99430.00;;;19.59
12430;BMP280;6279;42.192;24.326;2023-09-08T02:51:23;99422.38;;;19.51
12430;BMP280;6279;42.192;24.326;2023-09-08T02:53:48;99425.84;;;19.45
12430;BMP280;6279;42.192;24.326;2023-09-08T02:56:14;99425.03;;;19.45
12430;BMP280;6279;42.192;24.326;2023-09-08T02:58:39;99424.22;;;19.44
12430;BMP280;6279;42.192;24.326;2023-09-08T03:01:15;99431.09;;;19.45
12430;BMP280;6279;42.192;24.326;2023-09-08T03:03:41;99430.69;;;19.48
12430;BMP280;6279;42.192;24.326;2023-09-08T03:06:08;99430.31;;;19.45
12430;BMP280;6279;42.192;24.326;2023-09-08T03:08:34;99426.53;;;19.34
12430;BMP280;6279;42.192;24.326;2023-09-08T03:10:59;99431.16;;;19.39
12430;BMP280;6279;42.192;24.326;2023-09-08T03:13:25;99429.94;;;19.41
12430;BMP280;6279;42.192;24.326;2023-09-08T03:15:51;99425.25;;;19.43
12430;BMP280;6279;42.192;24.326;2023-09-08T03:18:17;99429.72;;;19.43
12430;BMP280;6279;42.192;24.326;2023-09-08T03:20:42;99426.09;;;19.37
12430;BMP280;6279;42.192;24.326;2023-09-08T03:23:08;99433.00;;;19.38
12430;BMP280;6279;42.192;24.326;2023-09-08T03:25:34;99437.72;;;19.24
12430;BMP280;6279;42.192;24.326;2023-09-08T03:27:59;99435.56;;;19.08
12430;BMP280;6279;42.192;24.326;2023-09-08T03:30:25;99433.03;;;18.89
12430;BMP280;6279;42.192;24.326;2023-09-08T03:32:50;99431.19;;;18.89
12430;BMP280;6279;42.192;24.326;2023-09-08T03:35:15;99434.00;;;19.01
12430;BMP280;6279;42.192;24.326;2023-09-08T03:37:41;99425.25;;;19.07
12430;BMP280;6279;42.192;24.326;2023-09-08T03:40:06;99436.78;;;19.12
12430;BMP280;6279;42.192;24.326;2023-09-08T03:42:32;99435.75;;;19.13
12430;BMP280;6279;42.192;24.326;2023-09-08T03:44:58;99435.34;;;19.16
12430;BMP280;6279;42.192;24.326;2023-09-08T03:47:23;99443.47;;;19.14
12430;BMP280;6279;42.192;24.326;2023-09-08T03:49:48;99442.66;;;19.14
12430;BMP280;6279;42.192;24.326;2023-09-08T03:52:14;99436.78;;;19.12
12430;BMP280;6279;42.192;24.326;2023-09-08T03:54:39;99443.50;;;19.08
12430;BMP280;6279;42.192;24.326;2023-09-08T03:57:05;99434.56;;;19.09
12430;BMP280;6279;42.192;24.326;2023-09-08T03:59:30;99443.06;;;19.11
12430;BMP280;6279;42.192;24.326;2023-09-08T04:01:55;99442.66;;;19.14
12430;BMP280;6279;42.192;24.326;2023-09-08T04:04:21;99445.31;;;19.14
12430;BMP280;6279;42.192;24.326;2023-09-08T04:06:52;99446.06;;;19.21
12430;BMP280;6279;42.192;24.326;2023-09-08T04:09:18;99441.41;;;19.23
12430;BMP280;6279;42.192;24.326;2023-09-08T04:11:43;99432.25;;;19.25
12430;BMP280;6279;42.192;24.326;2023-09-08T04:14:08;99441.34;;;19.29
12430;BMP280;6279;42.192;24.326;2023-09-08T04:16:34;99445.59;;;19.36
12430;BMP280;6279;42.192;24.326;2023-09-08T04:19:00;99446.94;;;19.45
12430;BMP280;6279;42.192;24.326;2023-09-08T04:21:25;99453.59;;;19.54
12430;BMP280;6279;42.192;24.326;2023-09-08T04:23:50;99454.97;;;19.63
12430;BMP280;6279;42.192;24.326;2023-09-08T04:26:16;99459.44;;;19.69
12430;BMP280;6279;42.192;24.326;2023-09-08T04:28:41;99466.53;;;19.68
12430;BMP280;6279;42.192;24.326;2023-09-08T04:31:07;99464.88;;;19.74
12430;BMP280;6279;42.192;24.326;2023-09-08T04:33:33;99465.47;;;19.76
12430;BMP280;6279;42.192;24.326;2023-09-08T04:35:58;99472.72;;;19.80
12430;BMP280;6279;42.192;24.326;2023-09-08T04:38:23;99474.94;;;19.83
12430;BMP280;6279;42.192;24.326;2023-09-08T04:40:49;99473.91;;;19.84
12430;BMP280;6279;42.192;24.326;2023-09-08T04:43:15;99475.94;;;19.88
12430;BMP280;6279;42.192;24.326;2023-09-08T04:45:40;99478.50;;;19.95
12430;BMP280;6279;42.192;24.326;2023-09-08T04:48:05;99473.38;;;19.99
12430;BMP280;6279;42.192;24.326;2023-09-08T04:50:31;99480.25;;;20.07
12430;BMP280;6279;42.192;24.326;2023-09-08T04:52:56;99473.00;;;19.96
12430;BMP280;6279;42.192;24.326;2023-09-08T04:55:22;99473.66;;;20.16
12430;BMP280;6279;42.192;24.326;2023-09-08T04:57:47;99486.94;;;20.33
12430;BMP280;6279;42.192;24.326;2023-09-08T05:00:13;99479.88;;;20.27
12430;BMP280;6279;42.192;24.326;2023-09-08T05:02:38;99482.63;;;20.39
12430;BMP280;6279;42.192;24.326;2023-09-08T05:05:04;99479.88;;;20.51
12430;BMP280;6279;42.192;24.326;2023-09-08T05:07:29;99492.03;;;20.76
12430;BMP280;6279;42.192;24.326;2023-09-08T05:09:55;99487.13;;;20.97
12430;BMP280;6279;42.192;24.326;2023-09-08T05:12:20;99486.31;;;21.14
12430;BMP280;6279;42.192;24.326;2023-09-08T05:14:45;99484.41;;;21.21
12430;BMP280;6279;42.192;24.326;2023-09-08T05:17:11;99478.72;;;21.35
12430;BMP280;6279;42.192;24.326;2023-09-08T05:19:36;99482.28;;;21.30
12430;BMP280;6279;42.192;24.326;2023-09-08T05:22:05;99484.34;;;21.56
12430;BMP280;6279;42.192;24.326;2023-09-08T05:24:30;99468.44;;;21.85
12430;BMP280;6279;42.192;24.326;2023-09-08T05:26:56;99481.06;;;22.12
12430;BMP280;6279;42.192;24.326;2023-09-08T05:29:21;99482.50;;;22.37
12430;BMP280;6279;42.192;24.326;2023-09-08T05:31:47;99484.00;;;22.78
12430;BMP280;6279;42.192;24.326;2023-09-08T05:34:12;99485.09;;;23.16
12430;BMP280;6279;42.192;24.326;2023-09-08T05:36:37;99484.69;;;23.46
12430;BMP280;6279;42.192;24.326;2023-09-08T05:39:05;99483.31;;;23.32
12430;BMP280;6279;42.192;24.326;2023-09-08T05:41:30;99489.28;;;23.51
12430;BMP280;6279;42.192;24.326;2023-09-08T05:43:57;99488.75;;;23.65
12430;BMP280;6279;42.192;24.326;2023-09-08T05:46:22;99482.53;;;23.87
12430;BMP280;6279;42.192;24.326;2023-09-08T05:48:48;99500.13;;;24.04
12430;BMP280;6279;42.192;24.326;2023-09-08T05:51:14;99498.00;;;24.33
12430;BMP280;6279;42.192;24.326;2023-09-08T05:53:42;99492.00;;;24.59
12430;BMP280;6279;42.192;24.326;2023-09-08T05:56:07;99493.94;;;24.79
12430;BMP280;6279;42.192;24.326;2023-09-08T05:58:33;99487.81;;;25.00
12430;BMP280;6279;42.192;24.326;2023-09-08T06:01:01;99490.69;;;25.14
12430;BMP280;6279;42.192;24.326;2023-09-08T06:03:26;99494.59;;;25.28
12430;BMP280;6279;42.192;24.326;2023-09-08T06:05:52;99491.91;;;25.44
12430;BMP280;6279;42.192;24.326;2023-09-08T06:08:17;99493.28;;;25.52
12430;BMP280;6279;42.192;24.326;2023-09-08T06:10:42;99500.44;;;25.46
12430;BMP280;6279;42.192;24.326;2023-09-08T06:13:08;99495.38;;;25.45
12430;BMP280;6279;42.192;24.326;2023-09-08T06:15:34;99502.16;;;25.36
12430;BMP280;6279;42.192;24.326;2023-09-08T06:17:59;99507.25;;;25.37
12430;BMP280;6279;42.192;24.326;2023-09-08T06:20:24;99508.41;;;25.25
12430;BMP280;6279;42.192;24.326;2023-09-08T06:22:51;99511.47;;;25.17
12430;BMP280;6279;42.192;24.326;2023-09-08T06:25:17;99500.63;;;25.40
12430;BMP280;6279;42.192;24.326;2023-09-08T06:27:42;99517.16;;;25.42
12430;BMP280;6279;42.192;24.326;2023-09-08T06:30:08;99523.16;;;25.53
12430;BMP280;6279;42.192;24.326;2023-09-08T06:32:33;99519.63;;;25.48
12430;BMP280;6279;42.192;24.326;2023-09-08T06:34:59;99512.00;;;25.35
12430;BMP280;6279;42.192;24.326;2023-09-08T06:37:24;99514.81;;;25.45
12430;BMP280;6279;42.192;24.326;2023-09-08T06:39:50;99521.69;;;25.62
12430;BMP280;6279;42.192;24.326;2023-09-08T06:42:15;99523.13;;;25.74
12430;BMP280;6279;42.192;24.326;2023-09-08T06:44:40;99526.72;;;25.85
12430;BMP280;6279;42.192;24.326;2023-09-08T06:47:06;99530.28;;;25.95
12430;BMP280;6279;42.192;24.326;2023-09-08T06:49:33;99519.88;;;26.19
12430;BMP280;6279;42.192;24.326;2023-09-08T06:51:58;99522.56;;;26.50
12430;BMP280;6279;42.192;24.326;2023-09-08T06:54:23;99528.22;;;26.94
12430;BMP280;6279;42.192;24.326;2023-09-08T06:56:49;99533.25;;;27.27
12430;BMP280;6279;42.192;24.326;2023-09-08T06:59:14;99526.41;;;27.50
12430;BMP280;6279;42.192;24.326;2023-09-08T07:01:39;99533.41;;;27.61
12430;BMP280;6279;42.192;24.326;2023-09-08T07:04:05;99527.63;;;27.93
12430;BMP280;6279;42.192;24.326;2023-09-08T07:06:30;99524.47;;;28.20
12430;BMP280;6279;42.192;24.326;2023-09-08T07:08:56;99540.03;;;28.67
12430;BMP280;6279;42.192;24.326;2023-09-08T07:11:21;99542.97;;;28.90
12430;BMP280;6279;42.192;24.326;2023-09-08T07:13:46;99541.56;;;29.12
12430;BMP280;6279;42.192;24.326;2023-09-08T07:16:12;99540.50;;;29.18
12430;BMP280;6279;42.192;24.326;2023-09-08T07:18:37;99544.78;;;29.09
12430;BMP280;6279;42.192;24.326;2023-09-08T07:21:03;99542.56;;;29.46
12430;BMP280;6279;42.192;24.326;2023-09-08T07:23:29;99550.03;;;29.58
12430;BMP280;6279;42.192;24.326;2023-09-08T07:25:55;99557.06;;;29.30
12430;BMP280;6279;42.192;24.326;2023-09-08T07:28:20;99550.72;;;28.87
12430;BMP280;6279;42.192;24.326;2023-09-08T07:30:45;99547.41;;;29.29
12430;BMP280;6279;42.192;24.326;2023-09-08T07:33:11;99547.72;;;29.13
12430;BMP280;6279;42.192;24.326;2023-09-08T07:35:37;99548.03;;;29.07
12430;BMP280;6279;42.192;24.326;2023-09-08T07:38:03;99547.22;;;28.77
12430;BMP280;6279;42.192;24.326;2023-09-08T07:40:29;99552.88;;;28.80
12430;BMP280;6279;42.192;24.326;2023-09-08T07:42:54;99533.34;;;28.65
12430;BMP280;6279;42.192;24.326;2023-09-08T07:45:19;99534.03;;;29.34
12430;BMP280;6279;42.192;24.326;2023-09-08T07:47:45;99538.09;;;31.43
12430;BMP280;6279;42.192;24.326;2023-09-08T07:50:27;99531.16;;;32.37
12430;BMP280;6279;42.192;24.326;2023-09-08T07:52:55;99539.16;;;31.88
12430;BMP280;6279;42.192;24.326;2023-09-08T07:55:22;99531.09;;;31.65
12430;BMP280;6279;42.192;24.326;2023-09-08T07:57:54;99538.97;;;32.70
12430;BMP280;6279;42.192;24.326;2023-09-08T08:00:20;99535.09;;;34.56
12430;BMP280;6279;42.192;24.326;2023-09-08T08:02:47;99547.63;;;34.17
12430;BMP280;6279;42.192;24.326;2023-09-08T08:05:13;99540.91;;;33.80
12430;BMP280;6279;42.192;24.326;2023-09-08T08:07:39;99545.91;;;33.73
12430;BMP280;6279;42.192;24.326;2023-09-08T08:10:06;99531.75;;;34.80
12430;BMP280;6279;42.192;24.326;2023-09-08T08:12:31;99540.66;;;34.38
12430;BMP280;6279;42.192;24.326;2023-09-08T08:14:57;99527.94;;;34.17
12430;BMP280;6279;42.192;24.326;2023-09-08T08:17:24;99526.94;;;34.69
12430;BMP280;6279;42.192;24.326;2023-09-08T08:19:50;99522.78;;;34.93
12430;BMP280;6279;42.192;24.326;2023-09-08T08:22:16;99524.06;;;35.25
12430;BMP280;6279;42.192;24.326;2023-09-08T08:24:41;99520.66;;;35.58
12430;BMP280;6279;42.192;24.326;2023-09-08T08:27:07;99514.50;;;35.74
12430;BMP280;6279;42.192;24.326;2023-09-08T08:29:32;99517.59;;;36.06
12430;BMP280;6279;42.192;24.326;2023-09-08T08:31:57;99515.34;;;36.08
12430;BMP280;6279;42.192;24.326;2023-09-08T08:34:23;99525.94;;;34.09
12430;BMP280;6279;42.192;24.326;2023-09-08T08:36:48;99521.34;;;34.09
12430;BMP280;6279;42.192;24.326;2023-09-08T08:39:13;99518.66;;;34.31
12430;BMP280;6279;42.192;24.326;2023-09-08T08:41:40;99503.00;;;34.41
12430;BMP280;6279;42.192;24.326;2023-09-08T08:44:07;99506.28;;;36.29
12430;BMP280;6279;42.192;24.326;2023-09-08T08:46:33;99513.47;;;36.17
12430;BMP280;6279;42.192;24.326;2023-09-08T08:49:01;99521.53;;;35.29
12430;BMP280;6279;42.192;24.326;2023-09-08T08:51:28;99510.03;;;35.61
12430;BMP280;6279;42.192;24.326;2023-09-08T08:53:55;99506.75;;;35.89
12430;BMP280;6279;42.192;24.326;2023-09-08T08:56:21;99509.22;;;34.41
12430;BMP280;6279;42.192;24.326;2023-09-08T08:58:47;99513.31;;;33.83
12430;BMP280;6279;42.192;24.326;2023-09-08T09:01:15;99503.44;;;33.65
12430;BMP280;6279;42.192;24.326;2023-09-08T09:03:42;99509.16;;;34.76
12430;BMP280;6279;42.192;24.326;2023-09-08T09:06:10;99502.81;;;34.81
12430;BMP280;6279;42.192;24.326;2023-09-08T09:08:37;99512.69;;;33.86
12430;BMP280;6279;42.192;24.326;2023-09-08T09:11:03;99503.97;;;34.02
12430;BMP280;6279;42.192;24.326;2023-09-08T09:13:29;99503.56;;;34.08
12430;BMP280;6279;42.192;24.326;2023-09-08T09:15:58;99494.34;;;33.35
12430;BMP280;6279;42.192;24.326;2023-09-08T09:18:24;99504.25;;;32.01
12430;BMP280;6279;42.192;24.326;2023-09-08T09:20:53;99510.25;;;31.34
12430;BMP280;6279;42.192;24.326;2023-09-08T09:23:30;99502.28;;;31.24
12430;BMP280;6279;42.192;24.326;2023-09-08T09:25:56;99504.69;;;31.26
12430;BMP280;6279;42.192;24.326;2023-09-08T09:28:22;99486.69;;;31.03
12430;BMP280;6279;42.192;24.326;2023-09-08T09:30:49;99489.53;;;30.28
12430;BMP280;6279;42.192;24.326;2023-09-08T09:33:16;99488.38;;;30.06
12430;BMP280;6279;42.192;24.326;2023-09-08T09:35:46;99481.88;;;30.44
12430;BMP280;6279;42.192;24.326;2023-09-08T09:38:13;99485.56;;;30.53
12430;BMP280;6279;42.192;24.326;2023-09-08T09:40:39;99487.31;;;30.95
12430;BMP280;6279;42.192;24.326;2023-09-08T09:43:06;99482.22;;;31.17
12430;BMP280;6279;42.192;24.326;2023-09-08T09:45:33;99479.69;;;31.02
12430;BMP280;6279;42.192;24.326;2023-09-08T09:47:59;99473.00;;;31.00
12430;BMP280;6279;42.192;24.326;2023-09-08T09:50:36;99474.91;;;30.71
12430;BMP280;6279;42.192;24.326;2023-09-08T09:53:08;99470.53;;;30.19
12430;BMP280;6279;42.192;24.326;2023-09-08T09:55:36;99468.06;;;29.85
12430;BMP280;6279;42.192;24.326;2023-09-08T09:58:02;99474.88;;;29.73
12430;BMP280;6279;42.192;24.326;2023-09-08T10:00:29;99467.72;;;30.34
12430;BMP280;6279;42.192;24.326;2023-09-08T10:02:56;99456.03;;;32.67
12430;BMP280;6279;42.192;24.326;2023-09-08T10:05:23;99448.88;;;34.24
12430;BMP280;6279;42.192;24.326;2023-09-08T10:07:49;99442.13;;;34.57
12430;BMP280;6279;42.192;24.326;2023-09-08T10:10:15;99440.94;;;34.49
12430;BMP280;6279;42.192;24.326;2023-09-08T10:12:45;99434.81;;;34.57
12430;BMP280;6279;42.192;24.326;2023-09-08T10:15:12;99437.59;;;34.01
12430;BMP280;6279;42.192;24.326;2023-09-08T10:17:40;99436.47;;;34.75
12430;BMP280;6279;42.192;24.326;2023-09-08T10:20:07;99428.72;;;37.14
12430;BMP280;6279;42.192;24.326;2023-09-08T10:22:38;99423.28;;;37.91
12430;BMP280;6279;42.192;24.326;2023-09-08T10:25:06;99426.59;;;39.04
12430;BMP280;6279;42.192;24.326;2023-09-08T10:27:33;99427.09;;;39.68
12430;BMP280;6279;42.192;24.326;2023-09-08T10:30:02;99421.50;;;38.47
12430;BMP280;6279;42.192;24.326;2023-09-08T10:32:31;99425.31;;;39.13
12430;BMP280;6279;42.192;24.326;2023-09-08T10:34:58;99426.16;;;36.81
12430;BMP280;6279;42.192;24.326;2023-09-08T10:37:26;99416.09;;;36.82
12430;BMP280;6279;42.192;24.326;2023-09-08T10:39:54;99414.63;;;36.22
12430;BMP280;6279;42.192;24.326;2023-09-08T10:42:20;99406.28;;;37.06
12430;BMP280;6279;42.192;24.326;2023-09-08T10:47:18;99404.09;;;36.91
12430;BMP280;6279;42.192;24.326;2023-09-08T10:49:45;99392.53;;;37.39
12430;BMP280;6279;42.192;24.326;2023-09-08T10:52:12;99405.06;;;36.41
12430;BMP280;6279;42.192;24.326;2023-09-08T10:54:41;99401.44;;;35.63
12430;BMP280;6279;42.192;24.326;2023-09-08T10:57:16;99403.19;;;36.09
12430;BMP280;6279;42.192;24.326;2023-09-08T10:59:51;99407.94;;;34.52
12430;BMP280;6279;42.192;24.326;2023-09-08T11:02:38;99384.31;;;35.21
12430;BMP280;6279;42.192;24.326;2023-09-08T11:05:07;99390.63;;;34.10
12430;BMP280;6279;42.192;24.326;2023-09-08T11:07:35;99396.19;;;32.57
12430;BMP280;6279;42.192;24.326;2023-09-08T11:10:00;99380.53;;;33.59
12430;BMP280;6279;42.192;24.326;2023-09-08T11:12:27;99371.50;;;34.50
12430;BMP280;6279;42.192;24.326;2023-09-08T11:14:53;99369.78;;;34.92
12430;BMP280;6279;42.192;24.326;2023-09-08T11:17:18;99373.19;;;35.06
12430;BMP280;6279;42.192;24.326;2023-09-08T11:19:48;99372.88;;;34.77
12430;BMP280;6279;42.192;24.326;2023-09-08T11:22:14;99360.75;;;35.13
12430;BMP280;6279;42.192;24.326;2023-09-08T11:24:42;99355.09;;;35.73
12430;BMP280;6279;42.192;24.326;2023-09-08T11:27:08;99350.78;;;35.55
12430;BMP280;6279;42.192;24.326;2023-09-08T11:29:33;99364.69;;;33.45
12430;BMP280;6279;42.192;24.326;2023-09-08T11:31:59;99358.47;;;32.83
12430;BMP280;6279;42.192;24.326;2023-09-08T11:34:25;99354.09;;;32.29
12430;BMP280;6279;42.192;24.326;2023-09-08T11:36:50;99344.25;;;32.25
12430;BMP280;6279;42.192;24.326;2023-09-08T11:39:18;99351.09;;;31.86
12430;BMP280;6279;42.192;24.326;2023-09-08T11:41:43;99331.19;;;33.80
12430;BMP280;6279;42.192;24.326;2023-09-08T11:44:09;99339.66;;;34.77
12430;BMP280;6279;42.192;24.326;2023-09-08T11:46:34;99331.91;;;33.73
12430;BMP280;6279;42.192;24.326;2023-09-08T11:49:00;99327.03;;;34.26
12430;BMP280;6279;42.192;24.326;2023-09-08T11:51:26;99321.22;;;34.70
12430;BMP280;6279;42.192;24.326;2023-09-08T11:53:52;99315.38;;;33.66
12430;BMP280;6279;42.192;24.326;2023-09-08T11:56:18;99318.53;;;33.68
12430;BMP280;6279;42.192;24.326;2023-09-08T11:58:44;99311.56;;;33.96
12430;BMP280;6279;42.192;24.326;2023-09-08T12:01:10;99310.41;;;34.11
12430;BMP280;6279;42.192;24.326;2023-09-08T12:03:51;99310.22;;;33.99
12430;BMP280;6279;42.192;24.326;2023-09-08T12:06:16;99303.34;;;34.23
12430;BMP280;6279;42.192;24.326;2023-09-08T12:08:42;99297.94;;;34.61
12430;BMP280;6279;42.192;24.326;2023-09-08T12:11:09;99296.41;;;34.77
12430;BMP280;6279;42.192;24.326;2023-09-08T12:13:35;99299.38;;;34.29
12430;BMP280;6279;42.192;24.326;2023-09-08T12:16:00;99296.66;;;34.20
12430;BMP280;6279;42.192;24.326;2023-09-08T12:18:39;99294.41;;;33.93
12430;BMP280;6279;42.192;24.326;2023-09-08T12:21:05;99295.19;;;32.81
12430;BMP280;6279;42.192;24.326;2023-09-08T12:23:30;99299.28;;;32.78
12430;BMP280;6279;42.192;24.326;2023-09-08T12:25:56;99299.94;;;32.97
12430;BMP280;6279;42.192;24.326;2023-09-08T12:28:22;99297.69;;;32.64
12430;BMP280;6279;42.192;24.326;2023-09-08T12:30:51;99280.31;;;32.30
12430;BMP280;6279;42.192;24.326;2023-09-08T12:33:19;99284.59;;;32.31
12430;BMP280;6279;42.192;24.326;2023-09-08T12:35:46;99283.94;;;31.95
12430;BMP280;6279;42.192;24.326;2023-09-08T12:38:13;99282.84;;;30.74
12430;BMP280;6279;42.192;24.326;2023-09-08T12:40:39;99280.38;;;30.59
12430;BMP280;6279;42.192;24.326;2023-09-08T12:43:05;99264.63;;;30.48
12430;BMP280;6279;42.192;24.326;2023-09-08T12:45:31;99265.03;;;30.37
12430;BMP280;6279;42.192;24.326;2023-09-08T12:47:59;99273.91;;;30.60
12430;BMP280;6279;42.192;24.326;2023-09-08T12:50:25;99258.84;;;31.00
12430;BMP280;6279;42.192;24.326;2023-09-08T12:52:51;99259.50;;;31.28
12430;BMP280;6279;42.192;24.326;2023-09-08T12:55:16;99254.75;;;31.57
12430;BMP280;6279;42.192;24.326;2023-09-08T12:57:42;99260.78;;;31.67
12430;BMP280;6279;42.192;24.326;2023-09-08T13:00:07;99261.78;;;31.53
12430;BMP280;6279;42.192;24.326;2023-09-08T13:02:33;99265.66;;;31.78
12430;BMP280;6279;42.192;24.326;2023-09-08T13:04:59;99251.28;;;32.14
12430;BMP280;6279;42.192;24.326;2023-09-08T13:07:26;99256.28;;;32.73
12430;BMP280;6279;42.192;24.326;2023-09-08T13:09:51;99251.97;;;33.20
12430;BMP280;6279;42.192;24.326;2023-09-08T13:12:17;99255.03;;;32.58
12430;BMP280;6279;42.192;24.326;2023-09-08T13:14:43;99257.34;;;31.62
12430;BMP280;6279;42.192;24.326;2023-09-08T13:17:10;99252.06;;;31.39
12430;BMP280;6279;42.192;24.326;2023-09-08T13:19:35;99255.44;;;30.95
12430;BMP280;6279;42.192;24.326;2023-09-08T13:22:05;99248.50;;;31.43
12430;BMP280;6279;42.192;24.326;2023-09-08T13:24:31;99243.13;;;32.06
12430;BMP280;6279;42.192;24.326;2023-09-08T13:26:57;99250.91;;;32.47
12430;BMP280;6279;42.192;24.326;2023-09-08T13:29:22;99250.31;;;32.23
12430;BMP280;6279;42.192;24.326;2023-09-08T13:31:48;99238.53;;;32.33
12430;BMP280;6279;42.192;24.326;2023-09-08T13:34:13;99245.06;;;31.87
12430;BMP280;6279;42.192;24.326;2023-09-08T13:36:39;99242.81;;;31.45
12430;BMP280;6279;42.192;24.326;2023-09-08T13:39:04;99249.22;;;31.67
12430;BMP280;6279;42.192;24.326;2023-09-08T13:41:45;99243.13;;;32.06
12430;BMP280;6279;42.192;24.326;2023-09-08T13:44:11;99230.56;;;32.41
12430;BMP280;6279;42.192;24.326;2023-09-08T13:46:36;99233.75;;;32.30
12430;BMP280;6279;42.192;24.326;2023-09-08T13:49:02;99234.28;;;32.00
12430;BMP280;6279;42.192;24.326;2023-09-08T13:51:27;99237.38;;;31.50
12430;BMP280;6279;42.192;24.326;2023-09-08T13:53:52;99233.75;;;31.41
12430;BMP280;6279;42.192;24.326;2023-09-08T13:56:18;99234.56;;;31.41
12430;BMP280;6279;42.192;24.326;2023-09-08T13:58:43;99231.56;;;31.43
12430;BMP280;6279;42.192;24.326;2023-09-08T14:01:10;99227.50;;;31.45
12430;BMP280;6279;42.192;24.326;2023-09-08T14:03:36;99227.97;;;31.34
12430;BMP280;6279;42.192;24.326;2023-09-08T14:06:01;99223.47;;;31.29